createdAt,value
2022-09-06T00:00:28.183Z,64.11
2022-09-06T00:02:56.067Z,64.14
2022-09-06T00:05:23.483Z,65.11
2022-09-06T00:07:50.757Z,64.16
2022-09-06T00:10:18.184Z,65.20
2022-09-06T00:12:46.881Z,65.26
2022-09-06T00:15:14.307Z,64.82
2022-09-06T00:17:41.560Z,64.42
2022-09-06T00:20:09.295Z,64.55
2022-09-06T00:22:38.504Z,65.02
2022-09-06T00:25:07.989Z,66.61
2022-09-06T00:27:35.897Z,66.91
2022-09-06T00:30:05.530Z,66.93
2022-09-06T00:32:33.327Z,67.47
2022-09-06T00:35:00.553Z,67.51
2022-09-06T00:37:27.809Z,66.66
2022-09-06T00:39:55.088Z,67.03
2022-09-06T00:42:22.480Z,65.90
2022-09-06T00:44:50.855Z,65.75
2022-09-06T00:47:19.496Z,65.12
2022-09-06T00:49:53.717Z,65.46
2022-09-06T00:52:23.380Z,66.52
2022-09-06T00:54:51.927Z,65.93
2022-09-06T00:57:19.956Z,65.53
2022-09-06T00:59:48.779Z,67.25
2022-09-06T01:02:16.311Z,66.33
2022-09-06T01:04:46.045Z,65.44
2022-09-06T01:28:55.237Z,69.03
2022-09-06T01:37:09.526Z,68.15
2022-09-06T01:39:41.471Z,68.38
2022-09-06T01:42:19.873Z,67.66
2022-09-06T01:44:58.644Z,67.27
2022-09-06T02:07:25.509Z,65.59
2022-09-06T02:10:23.405Z,65.95
2022-09-06T02:12:56.523Z,66.63
2022-09-06T02:15:33.489Z,65.64
2022-09-06T02:18:30.002Z,64.42
2022-09-06T02:21:01.835Z,65.92
2022-09-06T02:23:39.197Z,66.52
2022-09-06T02:28:47.850Z,67.70
2022-09-06T02:31:48.660Z,66.83
2022-09-06T02:34:20.032Z,67.12
2022-09-06T02:36:48.710Z,66.06
2022-09-06T02:39:16.919Z,64.86
2022-09-06T02:41:48.003Z,65.14
2022-09-06T02:44:15.818Z,64.77
2022-09-06T02:46:43.322Z,64.55
2022-09-06T02:49:10.726Z,63.28
2022-09-06T02:51:39.984Z,63.42
2022-09-06T02:54:08.260Z,63.06
2022-09-06T02:56:36.725Z,62.00
2022-09-06T02:59:05.506Z,61.19
2022-09-06T03:01:34.507Z,62.33
2022-09-06T03:04:02.283Z,62.38
2022-09-06T03:06:30.101Z,61.74
2022-09-06T03:08:58.428Z,61.40
2022-09-06T03:11:27.344Z,61.79
2022-09-06T03:13:54.705Z,62.20
2022-09-06T03:16:22.636Z,73.26
2022-09-06T03:18:50.366Z,84.74
2022-09-06T03:21:17.700Z,84.00
2022-09-06T03:23:45.823Z,84.96
2022-09-06T03:26:13.666Z,84.62
2022-09-06T03:28:41.258Z,84.04
2022-09-06T03:31:09.400Z,84.65
2022-09-06T03:33:36.974Z,84.37
2022-09-06T03:36:05.366Z,85.79
2022-09-06T03:38:33.305Z,86.58
2022-09-06T03:41:00.788Z,84.29
2022-09-06T03:43:28.828Z,83.91
2022-09-06T03:45:58.035Z,85.50
2022-09-06T03:48:29.282Z,86.76
2022-09-06T03:50:59.126Z,85.13
2022-09-06T03:53:29.718Z,82.32
2022-09-06T03:55:58.513Z,85.80
2022-09-06T03:58:32.623Z,83.06
2022-09-06T04:01:09.361Z,81.43
2022-09-06T04:03:39.256Z,84.71
2022-09-06T04:06:08.670Z,84.06
2022-09-06T04:08:37.248Z,85.91
2022-09-06T04:11:06.038Z,86.07
2022-09-06T04:13:35.003Z,85.22
2022-09-06T04:16:04.330Z,81.07
2022-09-06T04:18:33.340Z,80.37
2022-09-06T04:21:00.737Z,79.45
2022-09-06T04:23:29.974Z,81.75
2022-09-06T04:25:59.409Z,85.30
2022-09-06T04:28:28.168Z,85.50
2022-09-06T04:31:04.305Z,86.84
2022-09-06T04:33:35.897Z,86.37
2022-09-06T04:36:09.256Z,86.19
2022-09-06T04:38:43.031Z,84.90
2022-09-06T04:41:13.545Z,84.47
2022-09-06T04:43:40.855Z,81.45
2022-09-06T04:46:24.995Z,79.69
2022-09-06T04:48:55.127Z,84.15
2022-09-06T04:51:25.232Z,84.81
2022-09-06T04:53:53.260Z,85.16
2022-09-06T04:56:25.214Z,85.18
2022-09-06T04:58:55.205Z,86.25
2022-09-06T05:01:23.105Z,86.50
2022-09-06T05:03:53.973Z,86.56
2022-09-06T05:06:25.715Z,85.75
2022-09-06T05:08:53.108Z,85.43
2022-09-06T05:11:21.247Z,85.74
2022-09-06T05:13:50.152Z,86.29
2022-09-06T05:16:17.960Z,82.14
2022-09-06T05:18:45.325Z,78.21
2022-09-06T05:21:12.717Z,78.10
2022-09-06T05:23:40.000Z,81.83
2022-09-06T05:26:07.976Z,83.03
2022-09-06T05:28:35.484Z,87.17
2022-09-06T05:31:25.690Z,87.99
2022-09-06T05:33:55.313Z,87.14
2022-09-06T05:36:24.339Z,86.05
2022-09-06T05:38:54.621Z,85.79
2022-09-06T05:41:24.142Z,82.48
2022-09-06T05:43:51.466Z,82.85
2022-09-06T05:46:19.071Z,83.20
2022-09-06T05:48:54.848Z,81.11
2022-09-06T05:51:22.256Z,80.08
2022-09-06T05:53:49.816Z,80.31
2022-09-06T05:56:19.010Z,81.76
2022-09-06T05:58:46.700Z,81.44
2022-09-06T06:04:02.816Z,78.18
2022-09-06T06:06:34.553Z,79.60
2022-09-06T06:09:02.127Z,80.22
2022-09-06T06:11:31.402Z,80.41
2022-09-06T06:13:59.189Z,80.66
2022-09-06T06:16:26.879Z,80.04
2022-09-06T06:18:54.212Z,77.05
2022-09-06T06:21:26.620Z,77.58
2022-09-06T06:23:58.997Z,74.50
2022-09-06T06:26:29.298Z,76.20
2022-09-06T06:28:58.908Z,74.30
2022-09-06T06:31:26.343Z,73.75
2022-09-06T06:33:53.782Z,75.24
2022-09-06T06:36:26.453Z,79.66
2022-09-06T06:38:55.910Z,77.90
2022-09-06T06:41:28.179Z,75.53
2022-09-06T06:44:00.242Z,74.45
2022-09-06T06:46:32.466Z,72.37
2022-09-06T06:49:00.353Z,73.04
2022-09-06T06:51:32.280Z,72.71
2022-09-06T06:54:00.148Z,74.09
2022-09-06T06:56:33.827Z,77.01
2022-09-06T06:59:04.839Z,73.14
2022-09-06T07:01:35.922Z,64.47
2022-09-06T07:04:05.575Z,54.59
2022-09-06T07:12:28.279Z,50.86
2022-09-06T07:14:55.837Z,47.27
2022-09-06T07:17:23.678Z,43.94
2022-09-06T07:22:40.490Z,39.47
2022-09-06T07:25:13.380Z,33.15
2022-09-06T07:27:47.122Z,36.61
2022-09-06T07:30:15.712Z,36.78
2022-09-06T07:32:42.966Z,33.53
2022-09-06T07:35:12.348Z,32.23
2022-09-06T07:37:39.830Z,37.13
2022-09-06T07:40:08.367Z,37.66
2022-09-06T07:42:36.750Z,37.99
2022-09-06T07:45:06.050Z,42.12
2022-09-06T07:53:14.880Z,35.42
2022-09-06T07:55:44.922Z,29.15
2022-09-06T07:58:12.502Z,28.92
2022-09-06T08:00:41.229Z,24.26
2022-09-06T08:03:09.887Z,26.01
2022-09-06T08:11:14.893Z,26.12
2022-09-06T08:13:42.944Z,25.54
2022-09-06T08:16:12.781Z,23.30
2022-09-06T08:18:40.587Z,22.06
2022-09-06T08:23:58.366Z,25.65
2022-09-06T08:26:29.663Z,24.87
2022-09-06T08:29:02.373Z,23.68
2022-09-06T08:31:32.683Z,22.62
2022-09-06T08:34:01.678Z,21.33
2022-09-06T08:36:30.823Z,21.65
2022-09-06T08:39:01.331Z,22.61
2022-09-06T08:47:13.456Z,22.33
2022-09-06T08:49:49.490Z,21.76
2022-09-06T09:00:39.255Z,21.95
2022-09-06T09:03:18.858Z,22.15
2022-09-06T09:05:53.980Z,20.41
2022-09-06T09:08:48.059Z,19.47
2022-09-06T09:11:21.872Z,19.19
2022-09-06T09:14:28.504Z,19.13
2022-09-06T09:17:13.544Z,20.03
2022-09-06T09:19:42.606Z,19.69
2022-09-06T09:22:19.905Z,20.52
2022-09-06T09:24:51.781Z,21.99
2022-09-06T09:27:25.760Z,22.75
2022-09-06T09:38:26.984Z,20.92
2022-09-06T09:41:03.652Z,21.02
2022-09-06T09:43:42.608Z,22.33
2022-09-06T09:52:13.574Z,20.08
2022-09-06T09:54:46.950Z,20.89
2022-09-06T09:57:19.660Z,19.86
2022-09-06T09:59:54.242Z,18.52
2022-09-06T10:02:36.207Z,16.40
2022-09-06T10:05:19.954Z,14.92
2022-09-06T10:07:54.783Z,13.84
2022-09-06T10:10:42.037Z,14.39
2022-09-06T10:15:58.890Z,12.96
2022-09-06T10:21:22.262Z,13.70
2022-09-06T10:40:10.908Z,16.79
2022-09-06T10:46:02.424Z,20.28
2022-09-06T10:57:06.985Z,22.86
2022-09-06T11:10:55.641Z,24.75
2022-09-06T11:13:28.320Z,24.73
2022-09-06T11:37:39.636Z,25.69
2022-09-06T11:40:29.672Z,24.74
2022-09-06T11:51:40.664Z,23.50
2022-09-06T12:02:41.324Z,20.01
2022-09-06T12:05:19.552Z,19.22
2022-09-06T12:11:03.331Z,16.95
2022-09-06T12:13:58.051Z,16.83
2022-09-06T12:31:47.458Z,15.31
2022-09-06T12:34:25.426Z,16.13
2022-09-06T12:37:01.382Z,17.06
2022-09-06T12:39:28.895Z,16.39
2022-09-06T12:42:06.706Z,15.48
2022-09-06T12:44:43.046Z,16.67
2022-09-06T12:53:02.128Z,21.01
2022-09-06T12:55:38.502Z,20.51
2022-09-06T12:58:11.885Z,20.87
2022-09-06T13:00:51.531Z,20.38
2022-09-06T13:06:05.402Z,20.19
2022-09-06T13:08:53.543Z,20.70
2022-09-06T13:11:45.674Z,21.80
2022-09-06T13:14:26.861Z,23.39
2022-09-06T13:17:00.067Z,23.54
2022-09-06T13:22:11.961Z,25.49
2022-09-06T13:33:22.872Z,26.84
2022-09-06T13:36:09.239Z,27.22
2022-09-06T13:38:43.357Z,28.07
2022-09-06T13:44:32.124Z,29.51
2022-09-06T13:46:59.949Z,30.11
2022-09-06T13:49:31.348Z,30.85
2022-09-06T13:52:03.641Z,31.69
2022-09-06T13:54:33.256Z,31.97
2022-09-06T13:57:02.692Z,31.60
2022-09-06T13:59:31.620Z,31.10
2022-09-06T14:02:07.660Z,32.04
2022-09-06T14:04:36.731Z,34.23
2022-09-06T14:07:05.341Z,35.57
2022-09-06T14:09:36.074Z,36.77
2022-09-06T14:12:06.919Z,37.98
2022-09-06T14:14:34.742Z,36.14
2022-09-06T14:17:02.644Z,35.01
2022-09-06T14:19:30.158Z,34.87
2022-09-06T14:21:57.902Z,33.51
2022-09-06T14:24:25.380Z,32.31
2022-09-06T14:26:52.800Z,30.64
2022-09-06T14:29:20.630Z,31.50
2022-09-06T14:31:48.949Z,31.56
2022-09-06T14:34:16.540Z,31.51
2022-09-06T14:36:43.919Z,31.66
2022-09-06T14:39:11.449Z,31.44
2022-09-06T14:41:38.947Z,30.34
2022-09-06T14:44:06.417Z,29.68
2022-09-06T14:46:33.800Z,28.31
2022-09-06T14:49:07.474Z,27.51
2022-09-06T14:51:38.509Z,27.83
2022-09-06T14:54:12.691Z,28.50
2022-09-06T14:56:42.042Z,28.05
2022-09-06T14:59:11.186Z,27.48
2022-09-06T15:01:41.162Z,27.47
2022-09-06T15:04:11.296Z,29.11
2022-09-06T15:06:44.773Z,30.01
2022-09-06T15:09:12.225Z,29.97
2022-09-06T15:11:45.699Z,30.31
2022-09-06T15:14:20.349Z,31.43
2022-09-06T15:16:58.146Z,31.40
2022-09-06T15:19:30.182Z,31.90
2022-09-06T15:21:57.979Z,30.20
2022-09-06T15:24:26.151Z,29.89
2022-09-06T15:26:53.628Z,29.38
2022-09-06T15:29:21.175Z,29.56
2022-09-06T15:31:50.833Z,30.08
2022-09-06T15:34:21.019Z,28.88
2022-09-06T15:36:49.712Z,30.37
2022-09-06T15:39:18.163Z,31.41
2022-09-06T15:41:45.861Z,31.68
2022-09-06T15:44:18.032Z,31.67
2022-09-06T15:46:54.840Z,32.33
2022-09-06T15:49:28.711Z,32.14
2022-09-06T15:52:01.009Z,32.90
2022-09-06T15:54:50.009Z,33.66
2022-09-06T15:57:18.130Z,32.97
2022-09-06T15:59:46.260Z,32.93
2022-09-06T16:02:14.782Z,33.28
2022-09-06T16:04:42.164Z,33.43
2022-09-06T16:07:09.998Z,33.33
2022-09-06T16:09:37.555Z,33.08
2022-09-06T16:12:06.158Z,32.92
2022-09-06T16:14:33.661Z,33.87
2022-09-06T16:17:01.162Z,34.10
2022-09-06T16:19:28.843Z,33.35
2022-09-06T16:21:56.320Z,32.95
2022-09-06T16:24:26.517Z,32.47
2022-09-06T16:26:54.006Z,31.79
2022-09-06T16:29:21.449Z,33.21
2022-09-06T16:31:49.076Z,33.69
2022-09-06T16:34:16.697Z,32.93
2022-09-06T16:36:44.263Z,33.16
2022-09-06T16:39:11.834Z,33.11
2022-09-06T16:44:20.628Z,33.89
2022-09-06T16:46:50.390Z,34.20
2022-09-06T16:49:19.309Z,34.60
2022-09-06T16:51:50.023Z,35.47
2022-09-06T16:54:22.389Z,36.28
2022-09-06T16:56:50.082Z,37.10
2022-09-06T16:59:17.989Z,37.57
2022-09-06T17:01:46.293Z,37.47
2022-09-06T17:04:14.940Z,37.46
2022-09-06T17:06:44.511Z,37.20
2022-09-06T17:09:17.760Z,36.41
2022-09-06T17:11:46.386Z,35.46
2022-09-06T17:14:13.900Z,34.16
2022-09-06T17:17:02.214Z,34.70
2022-09-06T17:19:31.739Z,36.02
2022-09-06T17:21:59.218Z,36.71
2022-09-06T17:24:26.914Z,37.32
2022-09-06T17:26:54.569Z,38.72
2022-09-06T17:29:22.788Z,39.68
2022-09-06T17:31:50.364Z,40.74
2022-09-06T17:34:18.225Z,41.41
2022-09-06T17:36:45.970Z,41.64
2022-09-06T17:39:20.975Z,42.28
2022-09-06T17:41:54.392Z,43.18
2022-09-06T17:44:26.007Z,43.60
2022-09-06T17:49:43.365Z,45.16
2022-09-06T17:52:11.843Z,45.07
2022-09-06T17:54:39.361Z,45.64
2022-09-06T17:57:07.023Z,45.98
2022-09-06T17:59:36.037Z,45.52
2022-09-06T18:02:05.147Z,46.45
2022-09-06T18:04:33.371Z,46.84
2022-09-06T18:07:00.967Z,47.25
2022-09-06T18:09:28.628Z,48.70
2022-09-06T18:11:57.244Z,48.26
2022-09-06T18:14:25.175Z,49.17
2022-09-06T18:17:04.404Z,49.67
2022-09-06T18:19:32.827Z,49.46
2022-09-06T18:22:01.262Z,50.30
2022-09-06T18:24:29.554Z,49.96
2022-09-06T18:26:57.629Z,49.63
2022-09-06T18:29:25.750Z,50.04
2022-09-06T18:31:54.066Z,51.04
2022-09-06T18:34:23.588Z,50.98
2022-09-06T18:36:53.210Z,51.15
2022-09-06T18:39:22.307Z,50.72
2022-09-06T18:42:01.019Z,50.21
2022-09-06T18:44:34.714Z,51.62
2022-09-06T18:47:07.803Z,53.08
2022-09-06T18:49:56.130Z,53.73
2022-09-06T18:52:24.125Z,54.13
2022-09-06T18:54:55.138Z,54.34
2022-09-06T18:57:22.837Z,54.88
2022-09-06T18:59:50.819Z,54.61
2022-09-06T19:02:18.881Z,54.86
2022-09-06T19:04:47.640Z,54.75
2022-09-06T19:07:16.282Z,54.25
2022-09-06T19:09:44.027Z,53.76
2022-09-06T19:12:12.155Z,54.55
2022-09-06T19:14:40.001Z,53.46
2022-09-06T19:17:08.616Z,54.10
2022-09-06T19:19:36.725Z,54.15
2022-09-06T19:22:04.765Z,54.55
2022-09-06T19:24:33.524Z,54.86
2022-09-06T19:27:01.149Z,56.76
2022-09-06T19:29:28.831Z,56.89
2022-09-06T19:31:56.538Z,56.44
2022-09-06T19:34:24.254Z,54.87
2022-09-06T19:36:55.555Z,54.06
2022-09-06T19:39:32.240Z,55.54
2022-09-06T19:42:02.652Z,57.05
2022-09-06T19:44:30.728Z,56.94
2022-09-06T19:46:59.940Z,57.14
2022-09-06T19:49:27.606Z,58.82
2022-09-06T19:51:55.232Z,57.94
2022-09-06T19:54:23.839Z,58.03
2022-09-06T19:56:51.526Z,57.77
2022-09-06T19:59:19.134Z,58.00
2022-09-06T20:01:50.738Z,59.81
2022-09-06T20:04:19.915Z,60.78
2022-09-06T20:06:50.651Z,61.22
2022-09-06T20:09:18.315Z,60.71
2022-09-06T20:11:46.487Z,59.93
2022-09-06T20:14:14.345Z,58.60
2022-09-06T20:16:42.666Z,58.95
2022-09-06T20:19:14.561Z,59.01
2022-09-06T20:21:43.161Z,58.55
2022-09-06T20:24:11.075Z,58.56
2022-09-06T20:26:38.835Z,59.39
2022-09-06T20:29:07.158Z,59.41
2022-09-06T20:31:38.053Z,59.18
2022-09-06T20:34:07.049Z,59.15
2022-09-06T20:36:34.909Z,58.79
2022-09-06T20:39:03.778Z,57.83
2022-09-06T20:41:35.565Z,58.89
2022-09-06T20:44:04.143Z,58.71
2022-09-06T20:46:36.098Z,59.20
2022-09-06T20:49:09.214Z,59.46
2022-09-06T20:51:38.510Z,60.35
2022-09-06T20:54:06.940Z,59.36
2022-09-06T20:56:39.453Z,60.26
2022-09-06T20:59:11.918Z,60.49
2022-09-06T21:01:44.914Z,62.50
2022-09-06T21:04:16.087Z,62.37
2022-09-06T21:06:43.586Z,60.39
2022-09-06T21:09:14.479Z,60.97
2022-09-06T21:11:43.212Z,61.23
2022-09-06T21:14:11.368Z,60.94
2022-09-06T21:16:40.802Z,61.27
2022-09-06T21:19:11.461Z,62.04
2022-09-06T21:21:40.132Z,62.14
2022-09-06T21:24:09.967Z,59.48
2022-09-06T21:26:38.184Z,60.62
2022-09-06T21:29:05.807Z,59.93
2022-09-06T21:31:37.068Z,61.17
2022-09-06T21:34:15.671Z,61.53
2022-09-06T21:36:44.613Z,60.24
2022-09-06T21:39:13.457Z,57.84
2022-09-06T21:41:43.943Z,59.51
2022-09-06T21:46:41.088Z,60.54
2022-09-06T21:49:13.848Z,61.21
2022-09-06T21:51:42.508Z,61.75
2022-09-06T21:54:10.849Z,61.49
2022-09-06T21:56:39.937Z,61.29
2022-09-06T21:59:08.720Z,59.99
2022-09-06T22:01:39.470Z,58.53
2022-09-06T22:04:08.549Z,58.97
2022-09-06T22:06:37.675Z,60.22
2022-09-06T22:09:11.429Z,60.85
2022-09-06T22:11:43.934Z,61.81
2022-09-06T22:14:15.184Z,60.43
2022-09-06T22:16:42.856Z,60.55
2022-09-06T22:19:11.627Z,61.14
2022-09-06T22:21:40.128Z,60.64
2022-09-06T22:24:12.170Z,61.74
2022-09-06T22:26:41.821Z,62.73
2022-09-06T22:29:16.731Z,62.67
2022-09-06T22:31:44.414Z,62.66
2022-09-06T22:34:12.471Z,64.95
2022-09-06T22:36:40.011Z,65.11
2022-09-06T22:39:07.734Z,64.42
2022-09-06T22:41:35.268Z,64.47
2022-09-06T22:44:04.286Z,64.76
2022-09-06T22:46:32.951Z,64.98
2022-09-06T22:49:02.200Z,65.04
2022-09-06T22:51:29.580Z,65.04
2022-09-06T22:53:57.285Z,65.96
2022-09-06T22:56:25.108Z,65.68
2022-09-06T22:58:52.540Z,65.46
2022-09-06T23:01:20.520Z,65.79
2022-09-06T23:03:49.875Z,63.11
2022-09-06T23:06:17.718Z,64.88
2022-09-06T23:08:45.315Z,65.25
2022-09-06T23:11:18.639Z,65.20
2022-09-06T23:13:47.034Z,66.96
2022-09-06T23:16:19.363Z,67.17
2022-09-06T23:18:48.467Z,66.81
2022-09-06T23:21:21.601Z,66.46
2022-09-06T23:23:52.554Z,66.59
2022-09-06T23:26:25.800Z,65.48
2022-09-06T23:28:57.382Z,64.43
2022-09-06T23:31:29.358Z,63.71
2022-09-06T23:33:59.942Z,63.79
2022-09-06T23:36:28.594Z,64.03
2022-09-06T23:38:56.996Z,65.54
2022-09-06T23:41:25.081Z,65.36
2022-09-06T23:43:52.429Z,65.14
2022-09-06T23:46:20.166Z,65.86
2022-09-06T23:48:47.583Z,67.00
2022-09-06T23:51:15.016Z,66.70
2022-09-06T23:53:42.754Z,66.42
2022-09-06T23:56:11.419Z,65.62
2022-09-06T23:58:40.068Z,65.78
